Gulfport, Illinois
Current Conditions -  °F | °C
As of 6:02 PM on Monday 22 Dec 2014 (Local Time) from KBRL Reporting Station
Light Rain Light Rain  
Wind Chill: 38°   Ceiling: 200
Heat Index: 42°   Visibility: 1mi
Dew Point: 42°   Wind: 7mph
Humidity: 100%   Direction: 110°ESE
Pressure: 29.52"   Gusts: NA
Location:  40.7646°N, 91.0498°W
Report Text: KBRL 230002Z AUTO 11006KT 1SM -RA BR VV002 06/06 A2952 RMK AO2 P0000 T00560056
Loading
Personal Weather Stations






























Interactive Weather Map New forecast layout! Learn more

10-Day Weather Forecast

Advertisements
Track Severe Weather on mobile